Perry Point, MD (21902)

5:45 PM EDT on August 30, 2015 (GMT -0400)
TOP OF THE BAY N3OBQ | | Change Station
CLOSE
Current Station
Personal Weather Station
Location: PERRYVILLE, MD
Elevation: 125 ft
Nearby Weather Stations

Elev 125 ft 39.57 °N, 76.07 °W | Updated 8 seconds ago

Partly Cloudy
Partly Cloudy
82.6 °F
Feels Like 80 °F
N
0.0
Wind Variable Wind from North
Gusts 0.0 mph

Today
High -- | Low -- °F
--% Chance of Precip.
Yesterday
High -- | Low -- °F
Precip. -- in
6:30 AM 7:38 PM
Full, 98% visible
Pressure 30.07 in
Visibility 10.0 miles
Clouds Mostly Cloudy 10000 ft
Mostly Cloudy 20000 ft
Heat Index 80 °F
Dew Point -14 °F
Humidity 2%
Rainfall 0.00 in
Snow Depth Not available.
UV 2 out of 12
Pollen 10.30 out of 12
Air Quality Not available.
Flu Activity Not available.
METAR KMTN 302045Z 13006KT 10SM BKN100 BKN200 28/24 A3007
Pressure 30.07 in
Visibility 10.0 miles
Clouds Mostly Cloudy 10000 ft
Mostly Cloudy 20000 ft
Heat Index 80 °F
Dew Point -14 °F
Humidity 2%
Rainfall 0.00 in
Snow Depth Not available.
UV 2 out of 12
Pollen 10.30 out of 12
Air Quality Not available.
Flu Activity Not available.
METAR KMTN 302045Z 13006KT 10SM BKN100 BKN200 28/24 A3007

10-Day Weather Forecast

×

Almanac

Astronomy

Aug. 30, 2015 Rise Set
Actual Time
Civil Twilight
Nautical Twilight
Astronomical Twilight
Moon
Length of Visible Light
Length of Day
Tomorrow will be .
, % of the Moon is Illuminated

Today's Extremes

State Highs State Lows

Community

WunderPhotos

Upload Photos

1,851,063 photos uploaded!

WunderBlogs® & News

Nearby

Air Quality

  Air Quality AQ Index Pollutant
Not available.

Snow Depth

Station Depth Elevation

Earthquake Activity

City Distance Mag. Time & Date
Minimum magnitude displayed is 2.5.

Coastal Water Temperatures

Place Temperature

Stations

Nearby Weather Stations

Station Location Temp. Windchill Dew Point Humidity Wind Precip. Elev Updated Type